首页
METAR-TAF:

METAR-TAF

机场 :

门格洛尔国际机场

门格洛尔, 印度

纬度: 12-55N, 经度: 074-53E, 海拔: 102米

当前天气观测

该预报发布于36分钟前的14:00 UTC
风速7节,风向西南
温度 28°C
湿度 89%
气压 1008 hPa
能見度: 6000
散云层高于1200英尺
散云层高于1800英尺
少量云层高于2500英尺, 积雨云.

METAR: VOML 171400Z 22007KT 6000 SCT012 SCT018 FEW025CB 28/26 Q1008 NOSIG

时间: 20:06 (14:36 UTC)

预报

该预报发布于3小时和36分钟前的11:00 UTC
预报有效从17日的 12点(UTC)到 17日的 21点(UTC)
风速10节,风向西转西南
能見度: 6000
散云层高于1200英尺
散云层高于8000英尺
短暂存在
从 17日的 12点(UTC)到 17日的 18点(UTC)
能見度: 3000
散云层高于1200英尺
散云层高于2000英尺
少量云层高于2500英尺, 积雨云.
多云层高于8000英尺
雷暴, 雨, 雨,

TAF: VOML 171100Z 1712/1721 25010KT 6000 SCT012 SCT080 TEMPO 1712/1718 3000 TSRA RA SCT012 SCT020 FEW025CB BKN080

超过4000个机场的气象观测和天气预报(METAR&TAF报告)。

可查询的气象台以黄色和红色小点在地图上表示。

将鼠标移到小点上方,可查看气象台名称。

然后点击查看天气观测和预报。

如需切换地图:点击带黑十字的绿色按钮放大地图;点击带横线的绿色按钮缩小地图;或者点击绿色箭头查看邻近地区的地图。


METAR-TAF: